CST,Max TemperatureF,Mean TemperatureF,Min TemperatureF,Max Dew PointF,MeanDew PointF,Min DewpointF,Max Humidity, Mean Humidity, Min Humidity, Max Sea Level PressureIn, Mean Sea Level PressureIn, Min Sea Level PressureIn, Max VisibilityMiles, Mean VisibilityMiles, Min VisibilityMiles, Max Wind SpeedMPH, Mean Wind SpeedMPH, Max Gust SpeedMPH,PrecipitationIn, CloudCover, Events, WindDirDegrees
2013-12-1,68,58,48,59,54,47,96,85,69,30.16,30.03,29.88,10,10,0,10,3,,0.00,5,Fog,160
2013-12-2,58,54,49,57,54,48,98,97,92,29.88,29.76,29.69,7,2,0,6,1,,0.00,8,Fog,147
2013-12-3,62,56,49,56,52,49,98,94,71,29.69,29.61,29.55,10,3,0,10,4,,0.00,6,Fog,112
2013-12-4,74,60,47,60,49,39,98,76,39,29.89,29.70,29.59,10,6,0,14,6,21,0.00,4,Fog,4
2013-12-5,47,40,33,38,31,25,94,80,60,30.16,30.07,29.88,10,8,2,23,14,31,0.00,8,Rain-Snow,354
2013-12-6,35,34,33,34,33,31,94,93,92,30.16,30.13,30.10,5,4,2,17,10,22,0.00,8,Snow,360
2013-12-7,,,,,,,,,,,,,,,,,,,,,,
2013-12-8,36,36,35,35,35,34,96,95,94,30.19,30.15,30.11,10,8,7,5,2,,0.00,8,,293
2013-12-9,35,32,28,34,31,24,95,90,83,30.38,30.24,30.16,10,10,7,10,4,,0.00,7,,359
2013-12-10,37,29,21,33,27,18,96,88,83,30.50,30.40,30.35,10,9,3,10,5,,0.00,2,,302
2013-12-11,45,36,26,37,31,25,96,86,68,30.58,30.46,30.34,10,8,0,8,2,,0.00,1,Fog,9
2013-12-12,49,38,28,32,29,26,91,71,46,30.62,30.50,30.32,10,10,7,8,3,,0.00,0,,131
2013-12-13,42,40,39,41,34,30,96,77,63,30.32,30.16,29.89,10,8,2,10,6,17,0.00,4,Rain-Thunderstorm,138
2013-12-14,46,41,33,45,38,30,97,83,73,30.28,30.10,29.88,10,10,7,18,10,25,0.00,7,,334
2013-12-15,59,44,29,36,31,27,89,69,37,30.32,30.27,30.21,10,8,5,9,6,,0.00,0,,266
2013-12-16,67,51,35,40,37,33,92,59,35,30.24,30.19,30.14,10,10,10,9,5,,0.00,0,,204
2013-12-17,73,54,35,43,37,34,94,61,29,30.28,30.24,30.19,10,10,10,6,1,,0.00,0,,21
2013-12-18,72,56,40,44,39,35,82,57,32,30.26,30.14,30.01,10,7,1,14,5,22,0.00,0,,161
2013-12-19,72,62,53,63,55,44,91,77,62,30.01,29.88,29.76,10,9,3,20,9,30,0.00,5,,172
2013-12-20,72,56,39,67,56,39,97,90,70,29.86,29.82,29.74,10,7,1,18,6,26,0.00,6,Rain-Thunderstorm,243
2013-12-21,57,48,38,55,46,37,97,96,93,29.76,29.63,29.50,10,7,2,23,12,28,0.00,8,Rain-Thunderstorm,297
2013-12-22,38,36,34,32,29,27,82,75,72,30.38,30.26,30.01,10,10,10,17,13,23,0.00,8,,341
2013-12-23,47,38,28,30,28,25,89,75,46,30.56,30.48,30.38,10,10,10,10,5,,0.00,1,,340
2013-12-24,50,38,25,35,30,24,93,76,52,30.55,30.43,30.29,10,10,7,15,6,21,0.00,0,,129
2013-12-25,52,42,32,39,35,32,96,81,60,30.40,30.35,30.31,10,10,7,9,5,,0.00,2,,69
2013-12-26,56,44,32,38,35,31,97,78,48,30.45,30.39,30.33,10,7,2,7,3,,0.00,0,,329
2013-12-27,59,46,33,41,35,32,94,74,34,30.45,30.39,30.34,10,10,7,7,1,,0.00,0,,177
2013-12-28,63,50,36,43,38,34,89,68,43,30.33,30.14,29.98,10,10,10,9,2,,0.00,2,,162
2013-12-29,57,44,32,41,33,24,83,67,53,30.24,30.09,29.96,10,10,10,20,7,25,0.00,6,,346
2013-12-30,44,38,31,25,23,19,76,58,42,30.40,30.29,30.23,10,10,7,12,7,,0.00,3,Snow,304
2013-12-31,57,42,26,31,26,21,83,59,30,30.45,30.34,30.23,10,10,10,12,4,17,0.00,0,,175